Centropolis, Kansas
Current Conditions -  °F | °C
As of 11:53 AM on Saturday 25 Oct 2014 (Local Time) from KIXD Reporting Station
Clear Clear  
Wind Chill: 73°   Ceiling: Unl
Heat Index: 73°   Visibility: 10mi
Dew Point: 63°   Wind: 5mph
Humidity: 71%   Direction: 30°NNE
Pressure: 30.09"   Gusts: NA
Location:  38.6288°N, 95.2897°W
Report Text: KIXD 251653Z 03004KT 10SM CLR 23/17 A3009 RMK AO2 SLP183 T02280172 $
Loading
Personal Weather Stations






























Interactive Weather Map
Tropical Storm Tracking
New forecast layout! Learn more

10-Day Weather Forecast

Advertisements
Track Severe Weather on mobile